Time;durP1;ratioP1;P1;durP2;ratioP2;P2;SDS_P1;SDS_P2;PMS_P1;PMS_P2;Temp;Humidity;BMP_temperature;BMP_pressure;BME280_temperature;BME280_humidity;BME280_pressure;Samples;Min_cycle;Max_cycle;Signal;HPM_P1;HPM_P2
2022/09/29 00:00:28;;;;;;;11.93;5.20;;;8.30;99.90;;;7.19;100.00;95874.84;5070311;28;20407;-77
2022/09/29 00:02:54;;;;;;;9.30;5.30;;;8.30;99.90;;;7.22;100.00;95876.94;5069732;28;20484;-77
2022/09/29 00:05:21;;;;;;;12.27;5.45;;;8.30;99.90;;;7.26;100.00;95880.63;5070298;28;20497;-77
2022/09/29 00:07:47;;;;;;;10.75;5.40;;;8.30;99.90;;;7.29;100.00;95871.41;5070278;28;20408;-78
2022/09/29 00:10:12;;;;;;;9.32;5.22;;;8.40;99.90;;;7.33;100.00;95875.88;5070250;28;20908;-78
2022/09/29 00:12:39;;;;;;;12.93;6.15;;;8.40;99.90;;;7.39;100.00;95874.00;5069821;28;20400;-77
2022/09/29 00:15:07;;;;;;;9.70;5.70;;;8.50;99.90;;;7.43;100.00;95874.28;5070075;28;20884;-78
2022/09/29 00:17:33;;;;;;;7.57;5.03;;;8.50;99.90;;;7.43;100.00;95872.44;5070188;28;20931;-78
2022/09/29 00:20:00;;;;;;;11.13;5.37;;;8.50;99.90;;;7.48;100.00;95866.34;5070148;28;20396;-77
2022/09/29 00:22:25;;;;;;;7.55;5.05;;;8.50;99.90;;;7.45;100.00;95862.41;5069862;28;20404;-77
2022/09/29 00:24:51;;;;;;;10.48;5.38;;;8.50;99.90;;;7.44;100.00;95860.06;5052834;28;20429;-77
2022/09/29 00:27:18;;;;;;;12.48;5.15;;;8.50;99.90;;;7.44;100.00;95863.47;5074277;28;20478;-77
2022/09/29 00:29:45;;;;;;;10.52;5.50;;;8.50;99.90;;;7.38;100.00;95856.63;5074336;28;20472;-78
2022/09/29 00:32:12;;;;;;;9.32;5.50;;;8.50;99.90;;;7.46;100.00;95858.72;5074140;28;20885;-78
2022/09/29 00:34:38;;;;;;;8.82;5.05;;;8.50;99.90;;;7.45;100.00;95854.50;5073618;28;20400;-77
2022/09/29 00:37:04;;;;;;;8.30;4.82;;;8.50;99.90;;;7.47;100.00;95857.66;5074313;28;20846;-77
2022/09/29 00:39:30;;;;;;;9.45;5.60;;;8.50;99.90;;;7.58;100.00;95853.16;5073960;28;20491;-77
2022/09/29 00:41:56;;;;;;;8.00;4.87;;;8.60;99.90;;;7.49;100.00;95858.19;5073887;28;20816;-77
2022/09/29 00:45:15;;;;;;;14.55;5.38;;;8.60;99.90;;;7.50;100.00;95859.00;5073231;28;20884;-77
2022/09/29 00:47:49;;;;;;;8.25;5.28;;;8.60;99.90;;;7.50;100.00;95856.34;5059130;28;20420;-78
2022/09/29 00:50:22;;;;;;;9.80;5.15;;;8.60;99.90;;;7.49;100.00;95858.19;5073998;28;20400;-78
2022/09/29 00:52:54;;;;;;;10.98;5.38;;;8.50;99.90;;;7.56;100.00;95850.00;5073047;28;20480;-78
2022/09/29 00:55:24;;;;;;;8.23;5.10;;;8.60;99.90;;;7.55;100.00;95843.16;5073598;28;20900;-78
2022/09/29 00:57:57;;;;;;;10.38;4.35;;;8.60;99.90;;;7.54;100.00;95850.28;5055623;28;20490;-78
2022/09/29 01:00:23;;;;;;;7.07;4.47;;;8.60;99.90;;;7.54;100.00;95850.28;5073496;28;20402;-78
2022/09/29 01:02:56;;;;;;;8.48;4.75;;;8.60;99.90;;;7.54;100.00;95852.13;5072848;28;20402;-78
2022/09/29 01:05:26;;;;;;;11.73;4.97;;;8.60;99.90;;;7.60;100.00;95848.41;5073446;28;20426;-78
2022/09/29 01:07:52;;;;;;;14.60;5.25;;;8.70;99.90;;;7.63;100.00;95851.28;5073435;28;20976;-77
2022/09/29 01:10:19;;;;;;;9.80;5.05;;;8.60;99.90;;;7.60;100.00;95841.28;5073450;28;20487;-78
2022/09/29 01:12:47;;;;;;;9.90;4.70;;;8.70;99.90;;;7.63;100.00;95840.75;5072877;28;20889;-78
2022/09/29 01:15:15;;;;;;;11.23;5.25;;;8.70;99.90;;;7.56;100.00;95839.47;5073332;28;20439;-77
2022/09/29 01:17:41;;;;;;;10.00;4.60;;;8.60;99.90;;;7.50;100.00;95845.81;5073664;28;20494;-77
2022/09/29 01:20:14;;;;;;;8.83;4.50;;;8.60;99.90;;;7.47;100.00;95841.88;5073529;28;20501;-77
2022/09/29 01:23:49;;;;;;;9.05;4.05;;;8.60;99.90;;;7.39;100.00;95839.78;5073199;28;20464;-77
2022/09/29 01:26:59;;;;;;;7.53;4.20;;;8.50;99.90;;;7.41;100.00;95836.91;4984804;28;20548;-77
2022/09/29 01:30:17;;;;;;;8.82;4.53;;;8.50;99.90;;;7.42;100.00;95839.25;5073185;28;20492;-77
2022/09/29 01:33:03;;;;;;;7.22;4.70;;;8.40;99.90;;;7.42;100.00;95841.09;5053789;28;20412;-78
2022/09/29 01:35:38;;;;;;;10.35;4.32;;;8.50;99.90;;;7.55;100.00;95835.25;5072714;28;20464;-77
2022/09/29 01:38:28;;;;;;;7.95;4.43;;;8.60;99.90;;;7.48;100.00;95840.03;5072779;28;20407;-77
2022/09/29 01:41:03;;;;;;;9.25;4.50;;;8.50;99.90;;;7.56;100.00;95831.56;5072645;28;20399;-77
2022/09/29 01:43:35;;;;;;;8.65;4.60;;;8.60;99.90;;;7.62;100.00;95841.03;5072260;28;20943;-77
2022/09/29 01:46:06;;;;;;;7.43;4.10;;;8.60;99.90;;;7.60;100.00;95833.38;5072664;28;20447;-77
2022/09/29 01:48:38;;;;;;;10.82;4.43;;;8.60;99.90;;;7.64;100.00;95831.81;5072587;28;20499;-78
2022/09/29 01:51:11;;;;;;;7.13;4.05;;;8.70;99.90;;;7.63;100.00;95838.13;5072476;28;20901;-78
2022/09/29 01:53:42;;;;;;;8.60;4.80;;;8.70;99.90;;;7.61;100.00;95845.50;5054202;28;20967;-77
2022/09/29 01:56:15;;;;;;;8.77;4.47;;;8.70;99.90;;;7.62;100.00;95852.34;5054564;28;20400;-78
2022/09/29 01:58:51;;;;;;;7.85;4.43;;;8.70;99.90;;;7.64;100.00;95852.09;5072314;28;20404;-77
2022/09/29 02:01:19;;;;;;;9.45;4.32;;;8.70;99.90;;;7.66;100.00;95858.66;5072435;28;20395;-77
2022/09/29 02:03:52;;;;;;;11.63;4.63;;;8.70;99.90;;;7.58;100.00;95846.06;5072002;28;20857;-77
2022/09/29 02:06:24;;;;;;;7.65;3.85;;;8.70;99.90;;;7.52;100.00;95847.09;5072384;28;20396;-76
2022/09/29 02:08:53;;;;;;;7.32;3.60;;;8.60;99.90;;;7.51;100.00;95850.81;5072332;28;20495;-77
2022/09/29 02:11:20;;;;;;;12.27;4.30;;;8.50;99.90;;;7.54;100.00;95852.91;5072251;28;20479;-76
2022/09/29 02:13:53;;;;;;;8.73;3.80;;;8.60;99.90;;;7.54;100.00;95844.22;5071936;28;20403;-77
2022/09/29 02:16:25;;;;;;;8.95;3.92;;;8.60;99.90;;;7.57;100.00;95859.47;5072242;28;20392;-77
2022/09/29 02:18:56;;;;;;;5.65;3.78;;;8.60;99.90;;;7.54;100.00;95858.16;5072178;28;20396;-77
2022/09/29 02:21:22;;;;;;;6.20;3.70;;;8.60;99.90;;;7.53;100.00;95859.22;5072052;28;20404;-77
2022/09/29 02:23:49;;;;;;;6.57;4.10;;;8.60;99.90;;;7.55;100.00;95856.31;5071446;28;20483;-77
2022/09/29 02:26:16;;;;;;;10.27;4.00;;;8.60;99.90;;;7.59;100.00;95860.00;5072070;28;20482;-77
2022/09/29 02:28:42;;;;;;;8.48;3.80;;;8.60;99.90;;;7.57;100.00;95862.13;5071785;28;20415;-77
2022/09/29 02:31:09;;;;;;;6.20;3.88;;;8.60;99.90;;;7.60;100.00;95856.28;5072001;28;20400;-77
2022/09/29 02:33:35;;;;;;;6.97;3.83;;;8.60;99.90;;;7.58;100.00;95853.16;5071355;28;20412;-77
2022/09/29 02:36:16;;;;;;;7.53;3.70;;;8.70;99.90;;;7.69;100.00;95850.22;5071908;28;20411;-77
2022/09/29 02:38:48;;;;;;;6.75;3.70;;;8.70;99.90;;;7.69;100.00;95860.75;5072095;28;20474;-77
2022/09/29 02:41:28;;;;;;;7.25;3.75;;;8.70;99.90;;;7.73;100.00;95855.75;5071969;28;20408;-77
2022/09/29 02:44:24;;;;;;;6.18;3.95;;;8.80;99.90;;;7.73;100.00;95856.53;5071493;28;20757;-78
2022/09/29 02:47:18;;;;;;;6.30;3.50;;;8.80;99.90;;;7.74;100.00;95855.44;5071361;28;20461;-78
2022/09/29 02:50:13;;;;;;;11.70;4.00;;;8.80;99.90;;;7.75;100.00;95851.75;5071556;28;20423;-77
2022/09/29 02:52:50;;;;;;;5.55;3.47;;;8.80;99.90;;;7.75;100.00;95856.25;5071274;28;20411;-77
2022/09/29 02:55:23;;;;;;;10.38;3.50;;;8.80;99.90;;;7.68;100.00;95851.25;5071558;28;20808;-77
2022/09/29 02:57:57;;;;;;;7.25;3.67;;;8.80;99.90;;;7.78;100.00;95848.59;5071722;28;20424;-77
2022/09/29 03:00:25;;;;;;;6.47;3.40;;;8.80;99.90;;;7.76;100.00;95849.91;5071546;28;20412;-77
2022/09/29 03:02:51;;;;;;;10.48;3.53;;;8.80;99.90;;;7.74;100.00;95841.50;5070984;28;20403;-77
2022/09/29 03:05:21;;;;;;;4.60;3.13;;;8.80;99.90;;;7.74;100.00;95836.25;5071563;28;20483;-77
2022/09/29 03:07:48;;;;;;;7.57;3.50;;;8.80;99.90;;;7.76;100.00;95836.75;5071659;28;20442;-77
2022/09/29 03:10:16;;;;;;;4.70;3.22;;;8.80;99.90;;;7.77;100.00;95835.69;5071606;28;20453;-77
2022/09/29 03:12:43;;;;;;;5.03;2.90;;;8.80;99.90;;;7.77;100.00;95835.69;5070966;28;20404;-77
2022/09/29 03:15:12;;;;;;;5.35;3.10;;;8.80;99.90;;;7.76;100.00;95826.22;5071372;28;20553;-77
2022/09/29 03:17:39;;;;;;;5.13;3.58;;;8.80;99.90;;;7.75;100.00;95829.91;5071394;28;20403;-77
2022/09/29 03:20:06;;;;;;;9.70;3.55;;;8.80;99.90;;;7.73;100.00;95832.03;5071160;28;20396;-77
2022/09/29 03:22:32;;;;;;;6.88;3.40;;;8.80;99.90;;;7.70;100.00;95830.72;5071047;28;20491;-77
2022/09/29 03:24:59;;;;;;;5.07;3.15;;;8.80;99.90;;;7.69;100.00;95829.16;5070817;28;20490;-77
2022/09/29 03:27:25;;;;;;;6.15;3.38;;;8.70;99.90;;;7.66;100.00;95827.06;5071239;28;20415;-77
2022/09/29 03:29:51;;;;;;;7.70;4.00;;;8.70;99.90;;;7.63;100.00;95827.59;5053226;28;20403;-77
2022/09/29 03:32:17;;;;;;;5.57;3.42;;;8.70;99.90;;;7.61;100.00;95828.91;5052737;28;20912;-77
2022/09/29 03:34:43;;;;;;;7.45;3.33;;;8.70;99.90;;;7.57;100.00;95825.25;5070518;28;20408;-78
2022/09/29 03:37:09;;;;;;;4.83;3.20;;;8.60;99.90;;;7.55;100.00;95822.88;5070636;28;20547;-77
2022/09/29 03:39:35;;;;;;;5.22;3.25;;;8.60;99.90;;;7.50;100.00;95822.91;5070546;28;20881;-77
2022/09/29 03:42:03;;;;;;;7.22;3.63;;;8.60;99.90;;;7.46;100.00;95823.72;5070491;28;20395;-77
2022/09/29 03:44:28;;;;;;;9.18;3.60;;;8.60;99.90;;;7.39;100.00;95821.38;5070060;28;20411;-77
2022/09/29 03:46:54;;;;;;;7.30;3.80;;;8.50;99.90;;;7.34;100.00;95822.19;5069532;28;20951;-75
2022/09/29 03:49:26;;;;;;;5.78;3.67;;;8.50;99.90;;;7.29;100.00;95818.78;5059518;28;20417;-78
2022/09/29 03:51:52;;;;;;;5.65;3.83;;;8.40;99.90;;;7.24;100.00;95818.78;5060819;28;21054;-78
2022/09/29 03:54:18;;;;;;;7.28;4.13;;;8.40;99.90;;;7.21;100.00;95819.34;5057260;28;20435;-78
2022/09/29 03:56:44;;;;;;;6.93;3.80;;;8.30;99.90;;;7.14;100.00;95813.56;5051290;28;20401;-77
2022/09/29 03:59:13;;;;;;;5.45;3.90;;;8.30;99.90;;;7.09;100.00;95816.19;5049867;28;20437;-77
2022/09/29 04:01:39;;;;;;;6.47;3.90;;;8.20;99.90;;;7.03;100.00;95812.78;5049741;28;20484;-78
2022/09/29 04:04:05;;;;;;;6.43;4.03;;;8.20;99.90;;;7.00;100.00;95823.84;5054404;28;20408;-78
2022/09/29 04:06:31;;;;;;;6.22;4.13;;;8.10;99.90;;;6.97;100.00;95824.38;5056101;28;20399;-78
2022/09/29 04:08:57;;;;;;;8.20;3.90;;;8.10;99.90;;;6.93;100.00;95825.94;5059741;28;20411;-78
2022/09/29 04:11:23;;;;;;;8.77;4.30;;;8.10;99.90;;;6.90;100.00;95829.13;5058211;28;20427;-78
2022/09/29 04:13:49;;;;;;;10.02;4.28;;;8.00;99.90;;;6.86;100.00;95820.97;5081845;22;20565;-83
2022/09/29 04:16:16;;;;;;;6.32;3.63;;;8.00;99.90;;;6.83;100.00;95818.88;5068636;28;20396;-83
2022/09/29 04:18:42;;;;;;;7.47;3.88;;;8.00;99.90;;;6.80;100.00;95819.41;5063356;28;20396;-81
2022/09/29 04:21:08;;;;;;;5.38;3.90;;;7.90;99.90;;;6.79;100.00;95817.03;5063851;28;20410;-80
2022/09/29 04:23:35;;;;;;;7.82;4.00;;;7.90;99.90;;;6.76;100.00;95817.56;5069359;28;20410;-80
2022/09/29 04:26:02;;;;;;;7.30;3.90;;;7.90;99.90;;;6.74;100.00;95824.94;5070210;28;20399;-80
2022/09/29 04:28:31;;;;;;;7.28;4.07;;;7.90;99.90;;;6.73;100.00;95829.41;5069182;28;20419;-81
2022/09/29 04:30:57;;;;;;;6.20;4.20;;;7.90;99.90;;;6.72;100.00;95819.13;5069692;28;20403;-80
2022/09/29 04:33:24;;;;;;;7.63;3.88;;;7.90;99.90;;;6.70;100.00;95815.97;5069431;28;20400;-80
2022/09/29 04:35:50;;;;;;;8.30;4.03;;;7.90;99.90;;;6.68;100.00;95826.78;5069807;28;20411;-80
2022/09/29 04:38:16;;;;;;;7.78;4.20;;;7.80;99.90;;;6.64;100.00;95819.66;5069927;28;20530;-81
2022/09/29 04:40:42;;;;;;;6.68;4.22;;;7.80;99.90;;;6.62;100.00;95819.94;5070007;28;20468;-80
2022/09/29 04:43:08;;;;;;;7.55;4.22;;;7.70;99.90;;;6.57;100.00;95817.31;5069300;28;20873;-81
2022/09/29 04:45:34;;;;;;;5.75;4.22;;;7.70;99.90;;;6.53;100.00;95822.31;5070005;28;20899;-81
2022/09/29 04:48:00;;;;;;;9.38;4.40;;;7.70;99.90;;;6.53;100.00;95827.59;5069774;28;20408;-81
2022/09/29 04:50:28;;;;;;;6.65;4.20;;;7.70;99.90;;;6.48;100.00;95824.13;5069656;28;20782;-81
2022/09/29 04:52:54;;;;;;;5.75;4.10;;;7.60;99.90;;;6.48;100.00;95830.19;5084880;28;20537;-81
2022/09/29 04:55:19;;;;;;;7.25;4.45;;;7.60;99.90;;;6.48;100.00;95829.41;5069866;28;20467;-81
2022/09/29 04:57:47;;;;;;;9.73;4.47;;;7.60;99.90;;;6.47;100.00;95833.88;5069824;28;20487;-80
2022/09/29 05:00:14;;;;;;;7.28;4.25;;;7.70;99.90;;;6.45;100.00;95833.34;5069805;28;20410;-80
2022/09/29 05:02:40;;;;;;;10.95;4.90;;;7.60;99.90;;;6.43;100.00;95842.56;5069137;28;20439;-80
2022/09/29 05:05:09;;;;;;;6.50;4.50;;;7.60;99.90;;;6.41;100.00;95839.38;5068499;28;20932;-82
2022/09/29 05:07:38;;;;;;;6.53;4.33;;;7.60;99.90;;;6.38;100.00;95845.97;5066749;28;20437;-82
2022/09/29 05:10:06;;;;;;;9.63;5.28;;;7.50;99.90;;;6.35;100.00;95851.75;5069544;28;20475;-81
2022/09/29 05:12:32;;;;;;;8.73;5.00;;;7.50;99.90;;;6.35;100.00;95853.56;5072641;28;20419;-81
2022/09/29 05:14:58;;;;;;;10.10;5.07;;;7.50;99.90;;;6.34;100.00;95854.63;5072927;28;20830;-81
2022/09/29 05:17:24;;;;;;;8.77;4.65;;;7.50;99.90;;;6.33;100.00;95860.94;5073199;28;20399;-81
2022/09/29 05:19:50;;;;;;;9.07;5.35;;;7.50;99.90;;;6.31;100.00;95858.59;5073155;28;20442;-81
2022/09/29 05:22:19;;;;;;;13.07;5.55;;;7.50;99.90;;;6.32;100.00;95859.34;5072855;28;20960;-81
2022/09/29 05:24:46;;;;;;;8.00;5.28;;;7.50;99.90;;;6.33;100.00;95859.09;5072662;28;20447;-81
2022/09/29 05:27:12;;;;;;;10.55;5.70;;;7.50;99.90;;;6.36;100.00;95870.94;5073226;28;20486;-80
2022/09/29 05:29:38;;;;;;;10.53;6.17;;;7.50;99.90;;;6.37;100.00;95867.25;5072992;28;20419;-81
2022/09/29 05:32:04;;;;;;;10.95;5.85;;;7.50;99.90;;;6.39;100.00;95876.44;5072931;28;20403;-81
2022/09/29 05:34:30;;;;;;;10.85;6.18;;;7.50;99.90;;;6.40;100.00;95867.50;5072388;28;20404;-81
2022/09/29 05:36:56;;;;;;;10.65;6.45;;;7.60;99.90;;;6.40;100.00;95867.50;5072862;28;20445;-81
2022/09/29 05:39:21;;;;;;;8.63;6.22;;;7.60;99.90;;;6.40;100.00;95872.75;5072977;28;20913;-80
2022/09/29 05:41:49;;;;;;;10.82;6.22;;;7.50;99.90;;;6.41;100.00;95857.78;5073059;28;20403;-81
2022/09/29 05:44:15;;;;;;;14.38;6.00;;;7.60;99.90;;;6.41;100.00;95868.28;5072602;28;20395;-77
2022/09/29 05:46:41;;;;;;;9.25;5.85;;;7.50;99.90;;;6.40;100.00;95869.34;5072733;28;20457;-78
2022/09/29 05:49:07;;;;;;;9.27;5.55;;;7.50;99.90;;;6.41;100.00;95863.81;5072716;28;20416;-78
2022/09/29 05:51:33;;;;;;;11.20;6.10;;;7.60;99.90;;;6.42;100.00;95862.78;5072513;28;20460;-78
2022/09/29 05:54:00;;;;;;;10.65;5.93;;;7.60;99.90;;;6.42;100.00;95862.00;5071997;28;20404;-78
2022/09/29 05:56:26;;;;;;;9.90;5.72;;;7.60;99.90;;;6.44;100.00;95870.41;5072510;28;21265;-78
2022/09/29 05:58:54;;;;;;;11.57;5.80;;;7.60;99.90;;;6.45;100.00;95862.28;5072479;28;20471;-78
2022/09/29 06:01:22;;;;;;;10.70;5.47;;;7.60;99.90;;;6.48;100.00;95855.69;5072464;28;20972;-78
2022/09/29 06:03:50;;;;;;;7.47;5.35;;;7.60;99.90;;;6.50;100.00;95861.47;5071809;28;20768;-78
2022/09/29 06:06:18;;;;;;;9.57;5.28;;;7.60;99.90;;;6.52;100.00;95860.16;5071996;28;20395;-78
2022/09/29 06:08:46;;;;;;;8.15;5.25;;;7.60;99.90;;;6.56;100.00;95863.06;5072215;28;20471;-78
2022/09/29 06:11:14;;;;;;;9.98;5.72;;;7.70;99.90;;;6.60;100.00;95861.50;5072177;28;20426;-79
2022/09/29 06:13:43;;;;;;;6.88;5.00;;;7.70;99.90;;;6.64;100.00;95862.53;5066042;28;20904;-79
2022/09/29 06:16:11;;;;;;;8.73;5.35;;;7.80;99.90;;;6.68;100.00;95871.47;5064468;28;20428;-83
2022/09/29 06:18:37;;;;;;;9.73;5.60;;;7.80;99.90;;;6.75;100.00;95872.00;5057865;28;20471;-82
2022/09/29 06:21:05;;;;;;;7.83;6.07;;;7.80;99.90;;;6.80;100.00;95874.63;5071339;28;20481;-81
2022/09/29 06:23:32;;;;;;;10.30;5.40;;;7.90;99.90;;;6.85;100.00;95890.41;5064717;28;20836;-81
2022/09/29 06:26:00;;;;;;;7.25;5.47;;;8.00;99.90;;;6.90;100.00;95879.91;5071135;28;20395;-82
2022/09/29 06:28:30;;;;;;;8.82;5.60;;;8.00;99.90;;;6.94;100.00;95877.50;5070646;28;20450;-82
2022/09/29 06:30:59;;;;;;;7.53;5.47;;;8.10;99.90;;;6.98;100.00;95874.09;5070023;28;20481;-81
2022/09/29 06:33:26;;;;;;;11.85;5.55;;;8.10;99.90;;;7.04;100.00;95885.41;5058109;28;20405;-78
2022/09/29 06:38:37;;;;;;;9.13;5.43;;;8.20;99.90;;;7.09;100.00;95893.28;5070745;28;20449;-79
2022/09/29 06:41:04;;;;;;;10.23;5.43;;;8.20;99.90;;;7.13;100.00;95890.91;5071175;28;21062;-81
2022/09/29 06:43:30;;;;;;;8.95;5.35;;;8.20;99.90;;;7.16;100.00;95890.38;5070814;28;20881;-79
2022/09/29 06:45:56;;;;;;;11.45;5.50;;;8.20;99.90;;;7.18;100.00;95891.69;5061557;28;20416;-81
2022/09/29 06:48:21;;;;;;;7.17;5.10;;;8.30;99.90;;;7.21;100.00;95888.53;5063762;28;20423;-82
2022/09/29 06:50:49;;;;;;;10.15;5.53;;;8.30;99.90;;;7.25;100.00;95886.16;5067010;28;20407;-79
2022/09/29 06:53:15;;;;;;;10.13;6.45;;;8.30;99.90;;;7.28;100.00;95891.69;5070441;28;20410;-79
2022/09/29 06:55:41;;;;;;;15.30;6.75;;;8.30;99.90;;;7.32;100.00;95897.19;5071276;28;20404;-78
2022/09/29 06:58:07;;;;;;;13.13;7.35;;;8.40;99.90;;;7.28;100.00;95898.78;5070748;28;20400;-80
2022/09/29 07:00:33;;;;;;;14.52;6.75;;;8.30;99.90;;;7.15;100.00;95899.31;5071309;28;20418;-80
2022/09/29 07:03:00;;;;;;;11.63;6.72;;;8.20;99.90;;;7.13;100.00;95896.97;5076927;28;20399;-82
2022/09/29 07:05:26;;;;;;;12.40;7.47;;;8.20;99.90;;;7.22;100.00;95890.09;5064553;28;20422;-84
2022/09/29 07:07:54;;;;;;;11.07;6.53;;;8.30;99.90;;;7.27;100.00;95895.38;5062809;28;20780;-79
2022/09/29 07:10:20;;;;;;;11.80;7.07;;;8.30;99.90;;;7.36;100.00;95898.25;5068851;28;20411;-82
2022/09/29 07:12:46;;;;;;;12.20;6.90;;;8.40;99.90;;;7.45;100.00;95901.88;5065551;28;20479;-81
2022/09/29 07:15:12;;;;;;;12.20;7.03;;;8.50;99.90;;;7.51;100.00;95908.75;5067989;28;20411;-78
2022/09/29 07:17:38;;;;;;;8.07;6.15;;;8.60;99.90;;;7.58;100.00;95906.63;5062483;28;20426;-79
2022/09/29 07:20:06;;;;;;;10.90;6.88;;;8.60;99.90;;;7.64;100.00;95902.13;5068515;28;20483;-80
2022/09/29 07:22:32;;;;;;;8.90;6.47;;;8.70;99.90;;;7.70;100.00;95903.66;5068126;28;20410;-81
2022/09/29 07:24:59;;;;;;;12.52;7.18;;;8.70;99.90;;;7.75;100.00;95906.28;5069099;28;20400;-83
2022/09/29 07:27:25;;;;;;;10.77;7.30;;;8.80;99.90;;;7.81;100.00;95907.06;5067748;28;20430;-81
2022/09/29 07:29:51;;;;;;;15.07;7.78;;;8.80;99.90;;;7.85;100.00;95903.63;5069451;28;20415;-79
2022/09/29 07:32:17;;;;;;;12.02;6.72;;;8.80;99.90;;;7.89;100.00;95907.31;5069499;28;20464;-79
2022/09/29 07:34:43;;;;;;;10.95;7.18;;;8.90;99.90;;;7.94;100.00;95904.63;5069215;28;20458;-79
2022/09/29 07:37:09;;;;;;;11.50;7.55;;;8.90;99.90;;;8.00;100.00;95908.03;5069681;28;20407;-77
2022/09/29 07:39:35;;;;;;;11.60;7.03;;;9.00;99.90;;;8.04;100.00;95899.31;5069780;28;20481;-76
2022/09/29 07:42:03;;;;;;;10.60;7.00;;;9.00;99.90;;;8.09;100.00;95903.78;5069043;28;20893;-76
2022/09/29 07:44:31;;;;;;;15.20;7.47;;;9.10;99.90;;;8.12;100.00;95909.28;5068887;28;20975;-76
2022/09/29 07:46:57;;;;;;;9.05;6.07;;;9.20;99.90;;;8.18;100.00;95911.91;5069314;28;20435;-78
2022/09/29 07:49:23;;;;;;;10.63;6.72;;;9.20;99.90;;;8.20;100.00;95907.13;5069741;28;20912;-80
2022/09/29 07:51:49;;;;;;;11.15;6.65;;;9.20;99.90;;;8.25;100.00;95918.47;5069369;28;20407;-80
2022/09/29 07:54:15;;;;;;;9.15;5.75;;;9.20;99.90;;;8.29;100.00;95919.47;5069156;28;20396;-80
2022/09/29 07:56:41;;;;;;;11.15;6.95;;;9.30;99.90;;;8.21;100.00;95912.16;5069674;28;20440;-80
2022/09/29 07:59:11;;;;;;;10.88;6.43;;;9.20;99.90;;;8.13;100.00;95920.63;5069519;28;20527;-80
2022/09/29 08:01:36;;;;;;;12.57;6.90;;;9.10;99.90;;;8.25;100.00;95918.47;5066654;28;20506;-79
2022/09/29 08:04:02;;;;;;;10.95;6.63;;;9.20;99.90;;;8.31;100.00;95916.63;5068351;28;20415;-77
2022/09/29 08:06:29;;;;;;;9.70;6.63;;;9.30;99.90;;;8.39;100.00;95916.03;5068779;28;20412;-78
2022/09/29 08:08:55;;;;;;;13.38;7.60;;;9.40;99.90;;;8.46;100.00;95914.69;5069405;28;20415;-84
2022/09/29 08:11:22;;;;;;;11.63;7.63;;;9.50;99.90;;;8.48;100.00;95920.47;5068317;28;20412;-85
2022/09/29 08:13:51;;;;;;;12.15;6.90;;;9.40;99.90;;;8.57;100.00;95917.25;5084265;28;20959;-80
2022/09/29 08:16:20;;;;;;;12.55;7.22;;;9.50;99.90;;;8.66;100.00;95916.38;5069265;28;20399;-80
2022/09/29 08:18:46;;;;;;;10.75;6.70;;;9.60;99.90;;;8.77;100.00;95914.47;5068323;28;20406;-83
2022/09/29 08:21:14;;;;;;;10.25;6.45;;;9.70;99.90;;;8.84;100.00;95933.41;5068757;28;20412;-81
2022/09/29 08:23:42;;;;;;;9.50;5.80;;;9.70;99.90;;;8.90;100.00;95924.41;5068520;28;20426;-81
2022/09/29 08:26:11;;;;;;;8.38;5.80;;;9.80;99.90;;;8.98;100.00;95928.31;5084811;28;20754;-82
2022/09/29 08:28:38;;;;;;;8.63;5.93;;;9.90;99.90;;;9.06;100.00;95938.28;5068988;28;20761;-82
2022/09/29 08:31:06;;;;;;;9.55;5.78;;;10.00;99.90;;;9.13;100.00;95933.47;5068961;28;20490;-80
2022/09/29 08:33:35;;;;;;;11.10;6.10;;;10.10;99.90;;;9.22;100.00;95931.81;5068565;28;20453;-83
2022/09/29 08:36:04;;;;;;;10.57;5.80;;;10.20;99.90;;;9.31;100.00;95930.13;5069020;28;20403;-81
2022/09/29 08:38:31;;;;;;;8.80;5.90;;;10.20;99.90;;;9.40;100.00;95936.38;5068333;28;20403;-81
2022/09/29 08:41:03;;;;;;;8.68;5.72;;;10.30;99.90;;;9.55;100.00;95933.59;5069164;28;20395;-82
2022/09/29 08:43:37;;;;;;;12.70;6.05;;;10.50;99.90;;;9.57;100.00;95941.25;5068207;28;20492;-81
2022/09/29 08:46:10;;;;;;;6.97;5.28;;;10.50;99.90;;;9.60;100.00;95943.34;5070577;28;20431;-81
2022/09/29 08:48:42;;;;;;;9.35;5.47;;;10.50;99.90;;;9.66;100.00;95942.22;5070615;28;20457;-85
2022/09/29 08:51:22;;;;;;;7.70;4.97;;;10.60;99.90;;;9.71;100.00;95944.78;5073091;28;20487;-82
2022/09/29 08:53:51;;;;;;;7.75;5.10;;;10.60;99.90;;;9.74;100.00;95952.16;5072471;28;20431;-82
2022/09/29 08:56:18;;;;;;;10.20;5.60;;;10.70;99.90;;;9.80;100.00;95958.19;5073116;28;20403;-85
2022/09/29 08:58:44;;;;;;;7.60;5.32;;;10.70;99.90;;;9.89;100.00;95959.13;5072503;28;20399;-91
2022/09/29 09:01:23;;;;;;;6.80;4.73;;;10.80;99.90;;;10.01;100.00;95951.59;5088246;28;20416;-84
2022/09/29 09:04:25;;;;;;;11.38;5.35;;;10.90;99.90;;;10.14;100.00;95948.28;5071673;28;20443;-89
2022/09/29 09:07:06;;;;;;;6.50;4.20;;;11.00;99.90;;;10.24;100.00;95948.19;5069009;28;20450;-79
2022/09/29 09:09:49;;;;;;;6.95;4.30;;;11.10;99.90;;;10.30;100.00;95948.91;5072239;28;20412;-77
2022/09/29 09:12:36;;;;;;;9.15;4.95;;;11.20;99.90;;;10.31;100.00;95955.75;5069723;28;20403;-78
2022/09/29 09:15:28;;;;;;;9.77;4.68;;;11.20;99.90;;;10.25;100.00;95959.53;5070567;28;20411;-85
2022/09/29 09:18:24;;;;;;;8.63;4.47;;;11.10;99.90;;;10.21;100.00;95964.63;5084899;28;20494;-80
2022/09/29 09:21:02;;;;;;;11.13;4.45;;;11.10;99.90;;;10.19;100.00;95963.31;5067968;28;20415;-78
2022/09/29 09:23:41;;;;;;;6.10;4.00;;;11.10;99.90;;;10.19;100.00;95976.53;5071525;28;20416;-78
2022/09/29 09:26:09;;;;;;;8.07;4.50;;;11.10;99.90;;;10.20;100.00;95973.63;5072203;28;20404;-84
2022/09/29 09:28:42;;;;;;;7.82;4.55;;;11.10;99.90;;;10.21;100.00;95977.84;5072115;28;20450;-80
2022/09/29 09:31:14;;;;;;;7.68;4.13;;;11.10;99.90;;;10.23;100.00;95980.97;5072122;28;20443;-84
2022/09/29 09:33:46;;;;;;;5.20;3.95;;;11.10;99.90;;;10.26;100.00;95983.06;5086487;28;20412;-81
2022/09/29 09:36:18;;;;;;;5.80;3.60;;;11.10;99.90;;;10.30;100.00;95983.31;5087320;28;20431;-79
2022/09/29 09:38:51;;;;;;;8.27;3.80;;;11.20;99.90;;;10.34;100.00;95977.16;5071193;28;20407;-77
2022/09/29 09:41:21;;;;;;;9.10;4.80;;;11.20;99.90;;;10.35;100.00;95984.03;5069134;28;20409;-78
2022/09/29 09:43:53;;;;;;;10.60;5.30;;;11.30;99.90;;;10.25;100.00;95983.34;5071348;28;20412;-78
2022/09/29 09:46:25;;;;;;;11.35;4.65;;;11.10;99.90;;;10.12;100.00;95979.50;5070256;28;20407;-76
2022/09/29 09:49:00;;;;;;;6.60;4.00;;;11.00;99.90;;;10.24;100.00;95976.47;5071043;28;20412;-83
2022/09/29 09:51:40;;;;;;;6.20;4.20;;;11.10;99.90;;;10.34;100.00;95973.72;5087405;28;20835;-83
2022/09/29 09:54:18;;;;;;;6.88;3.90;;;11.20;99.90;;;10.40;100.00;95976.00;5068996;28;20404;-84
2022/09/29 09:57:31;;;;;;;6.22;3.88;;;11.30;99.90;;;10.53;100.00;95976.38;5069448;28;20404;-81
2022/09/29 10:00:10;;;;;;;6.73;4.33;;;11.30;99.90;;;10.63;100.00;95969.09;5020207;28;20407;-78
2022/09/29 10:02:43;;;;;;;14.95;4.32;;;11.50;99.90;;;10.72;100.00;95970.03;5070095;28;20404;-78
2022/09/29 10:05:12;;;;;;;6.80;3.80;;;11.60;99.90;;;10.83;100.00;95976.75;5070999;28;20407;-78
2022/09/29 10:07:39;;;;;;;7.30;3.67;;;11.70;99.90;;;10.92;100.00;95976.09;5070298;28;20408;-78
2022/09/29 10:10:16;;;;;;;4.65;3.25;;;11.70;99.90;;;10.99;100.00;95976.53;5070570;28;20747;-78
2022/09/29 10:12:44;;;;;;;5.97;3.53;;;11.80;99.90;;;11.04;100.00;95973.81;5085042;22;21266;-75
2022/09/29 10:15:20;;;;;;;5.95;3.30;;;11.90;99.90;;;11.06;100.00;95975.09;5080549;28;20408;-74
2022/09/29 10:17:58;;;;;;;4.75;2.90;;;11.90;99.90;;;11.11;100.00;95977.69;5076394;28;20408;-75
2022/09/29 10:20:35;;;;;;;6.20;2.88;;;12.00;99.90;;;11.16;100.00;95980.25;5077841;28;20418;-75
2022/09/29 10:23:27;;;;;;;5.63;2.97;;;12.00;99.90;;;11.19;100.00;95971.72;5067325;28;20450;-73
2022/09/29 10:25:59;;;;;;;5.03;2.70;;;12.00;99.90;;;11.28;100.00;95977.13;5057711;28;20406;-74
2022/09/29 10:28:36;;;;;;;6.03;2.80;;;12.10;99.90;;;11.40;100.00;95971.41;5062424;28;20452;-74
2022/09/29 10:31:13;;;;;;;4.53;2.50;;;12.20;99.90;;;11.54;100.00;95978.31;5059778;28;20480;-73
2022/09/29 10:33:48;;;;;;;3.53;2.50;;;12.30;99.90;;;11.78;100.00;95975.53;5060564;28;20883;-73
2022/09/29 10:36:14;;;;;;;8.55;2.97;;;12.50;99.90;;;12.02;100.00;95980.66;5057885;28;20502;-73